Galatia, New York
Current Conditions -  °F | °C
As of 12:35 PM on Wednesday 26 Nov 2014 (Local Time) from KN03 Reporting Station
Moderate Snow Moderate Snow  
Wind Chill: 32°   Ceiling: 700
Heat Index: 32°   Visibility: 1mi
Dew Point: 32°   Wind: 0mph
Humidity: 100%   Direction: NA
Pressure: 30.08"   Gusts: NA
Location:  42.4596°N, 76.0658°W
Report Text: KN03 261735Z AUTO 00000KT 1SM SN OVC007 00/00 A3008 RMK AO2
Loading
Personal Weather Stations






























Interactive Weather Map New forecast layout! Learn more

10-Day Weather Forecast

Advertisements
Track Severe Weather on mobile